Eastern Oregon Regional At Pendleton Airport
KPDT : rendu visible

Aérodrome :











RETROUVEZ-NOUS SUR...

 
LOGIN :

S'inscrire | Disclaimer

   EN    FR    IT 

 









Légende :    VFR   VFR Marginal   IFR   IFR Intensif   IFR Très Intensif
Visi : 
Plafond : 
>= 8 km
>= 3000ft
5 à 8 km
1000 à 3000 ft
1500m à 5 km
500 à 1000 ft
800 à 1500m
200 à 500 ft
< 800m
< 200 ft
Symboles :   Orages  Brouillard  Fortes neiges  Fortes précipitations  Vent > 20 kt






- Altitude de l'aérodrome : 1497 ft


KPDT - Eastern Oregon Regional At Pendleton

DERNIER METAR :
  • 110053Z 31006KT 6SM HZ CLR 33/03 A2987 RMK AO2 SLP098 T03330033

METARs EXPIRÉS :
  • 110016Z 31006KT 5SM HZ FEW001 33/03 A2988 RMK AO2 T03330033
  • 110007Z 31006KT 1 3/4SM HZ FEW001 33/04 A2989 RMK AO2 T03330039
  • 102353Z 30008KT 10SM CLR 32/04 A2989 RMK AO2 SLP107 T03220039 10333 20272 58025
  • 102253Z 27008KT 10SM CLR 33/04 A2992 RMK AO2 SLP116 T03280039

TAF KPDT
Valide du 11 à 00h jusqu'au 12 à 00h UTC


102320Z 1100/1124 28009KT P6SM SKC
FM110700 19007KT P6SM SKC
FM111600 26015G23KT P6SM SKC
FM112100 29020G28KT 6SM HZ FEW250
FM112330 26015G23KT 6SM HZ SCT250
FIR KZSE / Amérique du Nord



MET'MAP, la Météo Aéronautique d'un coup d'oeil ! - Copyright ORBIFLY Décembre 2007 - Disclaimer

ORBIFLY MET'MAP TEAM :

Programmation & Développement : Alexandra Zaïnal
Sur une idée originale de : Baudouin d'Aumeries
Assistance à la programmation : Marc-Olivier Méhu
Soutien technique & logistique : Manuel Goepfert

Contact : metmap@orbifly.com




SOURCES & CREDITS :

   NOAA       Earth
Advisory